createdAt,value
2023-02-16T00:02:40.930Z,20.03
2023-02-16T00:08:03.140Z,19.37
2023-02-16T00:13:47.591Z,24.30
2023-02-16T00:19:22.545Z,26.13
2023-02-16T00:24:44.544Z,20.83
2023-02-16T00:30:18.824Z,23.80
2023-02-16T00:35:45.073Z,25.90
2023-02-16T00:41:35.688Z,27.60
2023-02-16T00:47:27.728Z,20.63
2023-02-16T00:52:52.498Z,17.83
2023-02-16T00:58:29.843Z,27.73
2023-02-16T01:03:52.103Z,23.63
2023-02-16T01:09:38.888Z,20.90
2023-02-16T01:15:01.367Z,24.17
2023-02-16T01:20:26.762Z,20.30
2023-02-16T01:25:49.218Z,20.13
2023-02-16T01:31:14.403Z,19.53
2023-02-16T01:36:45.098Z,26.63
2023-02-16T01:42:13.729Z,23.93
2023-02-16T01:47:48.197Z,23.63
2023-02-16T01:53:22.115Z,22.73
2023-02-16T01:58:50.063Z,20.87
2023-02-16T02:04:39.414Z,16.23
2023-02-16T02:10:32.310Z,20.03
2023-02-16T02:15:58.551Z,20.60
2023-02-16T02:22:02.612Z,22.50
2023-02-16T02:27:26.898Z,23.13
2023-02-16T02:33:08.660Z,20.90
2023-02-16T02:38:38.836Z,23.63
2023-02-16T02:44:07.296Z,20.57
2023-02-16T02:49:29.840Z,21.03
2023-02-16T02:55:11.441Z,20.60
2023-02-16T03:00:47.298Z,20.80
2023-02-16T03:06:21.187Z,23.97
2023-02-16T03:12:05.342Z,21.80
2023-02-16T03:17:53.929Z,20.43
2023-02-16T03:23:35.115Z,22.60
2023-02-16T03:29:17.699Z,18.87
2023-02-16T03:34:40.264Z,26.10
2023-02-16T03:40:24.610Z,17.90
2023-02-16T03:45:47.117Z,22.17
2023-02-16T03:51:09.686Z,20.00
2023-02-16T03:56:31.985Z,15.27
2023-02-16T04:01:54.536Z,19.97
2023-02-16T04:07:16.788Z,20.17
2023-02-16T04:12:39.085Z,21.37
2023-02-16T04:18:01.565Z,17.93
2023-02-16T04:23:23.871Z,22.40
2023-02-16T04:28:46.256Z,21.67
2023-02-16T04:34:09.013Z,21.17
2023-02-16T04:39:32.132Z,19.77
2023-02-16T04:44:54.761Z,19.20
2023-02-16T04:50:17.409Z,21.97
2023-02-16T04:55:39.867Z,20.57
2023-02-16T05:01:02.738Z,17.83
2023-02-16T05:06:25.561Z,18.90
2023-02-16T05:12:06.247Z,21.10
2023-02-16T05:17:28.764Z,24.10
2023-02-16T05:22:50.824Z,24.30
2023-02-16T05:28:13.065Z,24.33
2023-02-16T05:33:35.498Z,25.10
2023-02-16T05:38:57.731Z,20.13
2023-02-16T05:44:20.105Z,20.60
2023-02-16T05:49:44.817Z,17.50
2023-02-16T05:55:07.104Z,25.00
2023-02-16T06:00:33.608Z,21.00
2023-02-16T06:05:58.550Z,20.10
2023-02-16T06:11:35.962Z,23.97
2023-02-16T06:16:58.910Z,24.97
2023-02-16T06:22:21.736Z,23.07
2023-02-16T06:27:44.174Z,27.00
2023-02-16T06:33:06.347Z,22.47
2023-02-16T06:38:28.643Z,30.47
2023-02-16T06:43:52.124Z,27.03
2023-02-16T06:49:20.412Z,25.73
2023-02-16T06:54:43.219Z,19.13
2023-02-16T07:00:07.671Z,28.80
2023-02-16T07:05:30.724Z,25.80
2023-02-16T07:10:53.543Z,19.23
2023-02-16T07:16:16.127Z,25.17
2023-02-16T07:21:38.363Z,24.37
2023-02-16T07:27:00.565Z,25.23
2023-02-16T07:32:23.091Z,25.67
2023-02-16T07:37:45.545Z,36.03
2023-02-16T07:43:08.376Z,34.67
2023-02-16T07:48:31.773Z,30.27
2023-02-16T07:53:54.776Z,26.43
2023-02-16T07:59:17.488Z,32.10
2023-02-16T08:04:40.934Z,31.17
2023-02-16T08:10:03.322Z,34.17
2023-02-16T08:15:25.382Z,27.17
2023-02-16T08:21:03.272Z,31.70
2023-02-16T08:26:29.405Z,32.93
2023-02-16T08:31:53.486Z,36.60
2023-02-16T08:37:16.214Z,41.77
2023-02-16T08:42:38.883Z,48.40
2023-02-16T08:48:03.590Z,36.80
2023-02-16T08:53:28.012Z,42.30
2023-02-16T08:58:50.609Z,40.90
2023-02-16T09:04:13.604Z,44.37
2023-02-16T09:09:35.995Z,42.07
2023-02-16T09:14:58.542Z,43.70
2023-02-16T09:20:21.189Z,49.10
2023-02-16T09:25:43.388Z,49.53
2023-02-16T09:31:27.187Z,41.20
2023-02-16T09:36:51.592Z,48.53
2023-02-16T09:42:28.925Z,47.53
2023-02-16T09:47:54.763Z,49.63
2023-02-16T09:53:36.358Z,47.60
2023-02-16T09:59:19.508Z,47.93
2023-02-16T10:05:13.004Z,44.23
2023-02-16T10:10:47.981Z,39.93
2023-02-16T10:16:19.337Z,44.53
2023-02-16T10:21:47.328Z,38.90
2023-02-16T10:27:15.782Z,46.93
2023-02-16T10:32:53.980Z,37.07
2023-02-16T10:38:20.501Z,46.77
2023-02-16T10:44:08.765Z,42.07
2023-02-16T10:49:35.554Z,44.53
2023-02-16T10:54:58.058Z,37.23
2023-02-16T11:00:29.516Z,40.27
2023-02-16T11:05:53.403Z,49.23
2023-02-16T11:11:17.263Z,44.93
2023-02-16T11:16:40.258Z,38.53
2023-02-16T11:22:02.660Z,41.10
2023-02-16T11:27:24.979Z,42.07
2023-02-16T11:32:47.513Z,42.83
2023-02-16T11:38:31.826Z,41.80
2023-02-16T11:43:56.031Z,39.80
2023-02-16T11:49:27.547Z,41.60
2023-02-16T11:54:57.800Z,39.67
2023-02-16T12:00:22.782Z,42.07
2023-02-16T12:06:05.909Z,40.57
2023-02-16T12:11:37.088Z,35.07
2023-02-16T12:17:18.229Z,42.40
2023-02-16T12:22:50.054Z,36.37
2023-02-16T12:28:25.252Z,42.87
2023-02-16T12:34:09.055Z,38.43
2023-02-16T12:39:41.231Z,35.67
2023-02-16T12:45:11.992Z,32.87
2023-02-16T12:50:36.635Z,35.13
2023-02-16T12:56:02.702Z,31.10
2023-02-16T13:01:33.829Z,31.70
2023-02-16T13:07:06.896Z,36.93
2023-02-16T13:12:34.354Z,47.73
2023-02-16T13:18:25.898Z,39.80
2023-02-16T13:24:01.054Z,39.00
2023-02-16T13:29:23.608Z,36.27
2023-02-16T13:35:08.837Z,36.43
2023-02-16T13:40:52.160Z,31.40
2023-02-16T13:46:26.323Z,34.37
2023-02-16T13:51:50.032Z,31.37
2023-02-16T13:57:14.509Z,32.33
2023-02-16T14:02:55.755Z,34.07
2023-02-16T14:08:31.364Z,29.50
2023-02-16T14:13:54.744Z,38.27
2023-02-16T14:19:22.885Z,31.40
2023-02-16T14:24:56.150Z,34.80
2023-02-16T14:30:22.418Z,32.47
2023-02-16T14:36:14.731Z,32.83
2023-02-16T14:41:39.031Z,36.80
2023-02-16T14:47:23.329Z,31.80
2023-02-16T14:52:48.165Z,32.90
2023-02-16T14:58:23.469Z,30.97
2023-02-16T15:03:56.868Z,34.07
2023-02-16T15:09:24.683Z,29.07
2023-02-16T15:14:57.828Z,31.37
2023-02-16T15:20:27.884Z,36.97
2023-02-16T15:26:39.501Z,30.20
2023-02-16T15:32:06.127Z,29.03
2023-02-16T15:37:34.245Z,34.60
2023-02-16T15:43:10.006Z,27.77
2023-02-16T15:48:37.882Z,30.60
2023-02-16T15:54:06.853Z,30.63
2023-02-16T15:59:37.647Z,35.17
2023-02-16T16:05:03.307Z,32.30
2023-02-16T16:10:35.758Z,30.33
2023-02-16T16:16:02.283Z,29.43
2023-02-16T16:21:29.213Z,31.17
2023-02-16T16:26:55.762Z,37.23
2023-02-16T16:32:25.008Z,30.70
2023-02-16T16:37:51.402Z,31.57
2023-02-16T16:43:18.410Z,32.50
2023-02-16T16:48:52.889Z,32.57
2023-02-16T16:54:36.297Z,31.27
2023-02-16T16:59:58.910Z,27.43
2023-02-16T17:05:21.508Z,31.40
2023-02-16T17:10:44.049Z,31.73
2023-02-16T17:16:26.933Z,26.50
2023-02-16T17:21:49.504Z,28.83
2023-02-16T17:27:12.174Z,31.93
2023-02-16T17:32:34.421Z,34.43
2023-02-16T17:37:57.283Z,35.00
2023-02-16T17:43:21.860Z,35.90
2023-02-16T17:48:44.525Z,33.17
2023-02-16T17:54:10.626Z,37.40
2023-02-16T17:59:34.266Z,20.47
2023-02-16T18:04:57.164Z,35.83
2023-02-16T18:10:32.572Z,35.50
2023-02-16T18:15:57.628Z,33.27
2023-02-16T18:21:20.212Z,36.03
2023-02-16T18:26:42.636Z,37.33
2023-02-16T18:32:05.308Z,35.30
2023-02-16T18:37:27.943Z,36.80
2023-02-16T18:42:51.260Z,32.43
2023-02-16T18:48:13.792Z,31.70
2023-02-16T18:53:37.745Z,30.50
2023-02-16T18:59:00.399Z,38.77
2023-02-16T19:04:22.636Z,31.67
2023-02-16T19:09:45.115Z,32.00
2023-02-16T19:15:08.737Z,37.80
2023-02-16T19:20:31.275Z,35.70
2023-02-16T19:25:54.310Z,32.93
2023-02-16T19:31:23.027Z,32.50
2023-02-16T19:36:45.578Z,31.97
2023-02-16T19:42:07.997Z,35.63
2023-02-16T19:47:30.852Z,31.43
2023-02-16T19:52:53.132Z,31.53
2023-02-16T19:58:15.473Z,31.50
2023-02-16T20:03:38.112Z,32.67
2023-02-16T20:09:01.439Z,32.03
2023-02-16T20:14:23.985Z,30.37
2023-02-16T20:19:46.549Z,29.60
2023-02-16T20:25:09.215Z,30.67
2023-02-16T20:30:32.054Z,34.17
2023-02-16T20:35:54.368Z,39.97
2023-02-16T20:41:18.297Z,35.07
2023-02-16T20:46:41.290Z,33.17
2023-02-16T20:52:04.019Z,39.30
2023-02-16T20:57:27.494Z,30.60
2023-02-16T21:02:50.959Z,28.27
2023-02-16T21:08:13.355Z,33.00
2023-02-16T21:13:37.450Z,33.40
2023-02-16T21:19:00.011Z,36.43
2023-02-16T21:24:22.438Z,32.93
2023-02-16T21:29:44.947Z,41.07
2023-02-16T21:35:07.384Z,38.03
2023-02-16T21:40:48.690Z,35.60
2023-02-16T21:46:12.873Z,36.60
2023-02-16T21:51:38.044Z,33.90
2023-02-16T21:57:00.513Z,35.67
2023-02-16T22:02:23.009Z,36.60
2023-02-16T22:07:46.007Z,37.30
2023-02-16T22:13:08.693Z,33.73
2023-02-16T22:18:31.042Z,32.90
2023-02-16T22:23:54.078Z,32.63
2023-02-16T22:29:16.709Z,40.10
2023-02-16T22:34:39.568Z,34.33
2023-02-16T22:40:02.017Z,30.63
2023-02-16T22:45:24.891Z,35.27
2023-02-16T22:50:57.200Z,34.20
2023-02-16T22:56:20.249Z,33.73
2023-02-16T23:01:42.867Z,39.83
2023-02-16T23:07:05.488Z,37.67
2023-02-16T23:12:28.226Z,30.40
2023-02-16T23:17:50.269Z,32.90
2023-02-16T23:23:12.630Z,33.17
2023-02-16T23:28:36.560Z,34.83
2023-02-16T23:34:01.842Z,36.90
2023-02-16T23:39:24.586Z,38.03
2023-02-16T23:44:47.057Z,35.53
2023-02-16T23:50:09.635Z,38.20
2023-02-16T23:55:32.180Z,38.77
